createdAt,value
2022-08-17T00:00:16.582Z,95834.30
2022-08-17T00:03:23.053Z,95830.41
2022-08-17T00:05:56.704Z,95828.25
2022-08-17T00:08:35.313Z,95830.84
2022-08-17T00:11:07.256Z,95832.44
2022-08-17T00:13:39.905Z,95832.02
2022-08-17T00:16:12.067Z,95833.00
2022-08-17T00:19:01.245Z,95824.50
2022-08-17T00:22:28.698Z,95819.42
2022-08-17T00:24:18.694Z,95814.64
2022-08-17T00:26:47.164Z,95818.55
2022-08-17T00:29:20.016Z,95818.01
2022-08-17T00:31:49.438Z,95811.02
2022-08-17T00:34:17.974Z,95807.71
2022-08-17T00:36:45.823Z,95802.34
2022-08-17T00:39:13.806Z,95804.80
2022-08-17T00:41:42.160Z,95802.20
2022-08-17T00:44:12.224Z,95803.17
2022-08-17T00:46:43.879Z,95801.52
2022-08-17T00:49:13.206Z,95800.27
2022-08-17T00:51:50.372Z,95802.73
2022-08-17T00:54:24.897Z,95808.70
2022-08-17T00:56:56.765Z,95803.52
2022-08-17T00:59:27.928Z,95805.09
2022-08-17T01:01:55.815Z,95806.86
2022-08-17T01:04:26.463Z,95806.16
2022-08-17T01:06:55.962Z,95805.77
2022-08-17T01:09:24.113Z,95806.92
2022-08-17T01:11:52.417Z,95805.58
2022-08-17T01:14:22.313Z,95808.05
2022-08-17T01:16:54.080Z,95803.23
2022-08-17T01:19:26.177Z,95801.60
2022-08-17T01:22:03.176Z,95808.72
2022-08-17T01:24:31.248Z,95806.75
2022-08-17T01:27:03.970Z,95809.67
2022-08-17T01:29:41.276Z,95808.37
2022-08-17T01:32:10.493Z,95808.14
2022-08-17T01:34:42.775Z,95812.39
2022-08-17T01:37:14.383Z,95810.44
2022-08-17T01:39:51.995Z,95810.77
2022-08-17T01:42:29.701Z,95812.21
2022-08-17T01:45:05.273Z,95810.05
2022-08-17T01:47:45.366Z,95809.67
2022-08-17T01:50:17.820Z,95805.77
2022-08-17T01:52:47.796Z,95803.45
2022-08-17T01:55:21.530Z,95803.08
2022-08-17T01:57:51.347Z,95801.11
2022-08-17T02:00:19.426Z,95804.06
2022-08-17T02:02:47.622Z,95803.62
2022-08-17T02:05:16.566Z,95804.02
2022-08-17T02:08:20.113Z,95802.52
2022-08-17T02:11:39.645Z,95801.02
2022-08-17T02:22:21.044Z,95809.06
2022-08-17T02:25:27.645Z,95815.07
2022-08-17T02:35:10.629Z,95818.64
2022-08-17T02:38:33.035Z,95806.99
2022-08-17T02:41:40.646Z,95809.04
2022-08-17T02:45:12.520Z,95813.55
2022-08-17T02:48:50.254Z,95813.13
2022-08-17T02:52:07.628Z,95817.62
2022-08-17T02:55:19.649Z,95817.55
2022-08-17T02:58:50.724Z,95811.28
2022-08-17T03:01:50.680Z,95820.43
2022-08-17T03:05:37.715Z,95827.13
2022-08-17T03:08:43.640Z,95819.84
2022-08-17T03:16:25.669Z,95828.38
2022-08-17T03:19:43.142Z,95827.39
2022-08-17T03:23:02.776Z,95830.14
2022-08-17T03:25:53.124Z,95831.05
2022-08-17T03:29:03.104Z,95831.70
2022-08-17T03:32:22.159Z,95839.17
2022-08-17T03:35:22.589Z,95839.51
2022-08-17T03:38:25.699Z,95841.68
2022-08-17T03:41:28.047Z,95842.48
2022-08-17T03:44:57.787Z,95844.27
2022-08-17T03:48:45.211Z,95858.63
2022-08-17T03:51:58.466Z,95864.17
2022-08-17T03:55:10.349Z,95867.55
2022-08-17T03:58:40.642Z,95872.05
2022-08-17T04:02:24.417Z,95881.95
2022-08-17T04:05:27.625Z,95880.63
2022-08-17T04:08:53.141Z,95884.62
2022-08-17T04:11:57.710Z,95885.52
2022-08-17T04:15:02.856Z,95882.40
2022-08-17T04:18:03.089Z,95885.21
2022-08-17T04:21:19.696Z,95884.36
2022-08-17T04:24:18.165Z,95883.68
2022-08-17T04:27:08.048Z,95886.10
2022-08-17T04:30:06.229Z,95884.41
2022-08-17T04:33:16.967Z,95881.77
2022-08-17T04:36:28.659Z,95879.59
2022-08-17T04:39:39.807Z,95880.45
2022-08-17T04:46:19.901Z,95886.83
2022-08-17T04:49:33.670Z,95885.59
2022-08-17T04:52:43.724Z,95887.86
2022-08-17T04:55:53.641Z,95884.20
2022-08-17T04:58:47.727Z,95885.59
2022-08-17T05:01:56.650Z,95887.75
2022-08-17T05:04:58.081Z,95899.80
2022-08-17T05:07:54.685Z,95899.17
2022-08-17T05:11:04.674Z,95898.47
2022-08-17T05:14:13.651Z,95899.60
2022-08-17T05:17:11.231Z,95894.34
2022-08-17T05:20:23.901Z,95897.35
2022-08-17T05:23:15.709Z,95898.36
2022-08-17T05:26:26.634Z,95897.44
2022-08-17T05:29:19.656Z,95904.27
2022-08-17T05:32:38.256Z,95898.95
2022-08-17T05:35:42.755Z,95904.30
2022-08-17T05:39:15.813Z,95906.46
2022-08-17T05:42:22.691Z,95906.02
2022-08-17T05:45:55.104Z,95909.73
2022-08-17T05:49:13.704Z,95912.38
2022-08-17T05:55:37.723Z,95921.28
2022-08-17T05:58:45.584Z,95921.01
2022-08-17T06:01:57.672Z,95922.81
2022-08-17T06:05:17.527Z,95925.63
2022-08-17T06:11:58.747Z,95921.02
2022-08-17T06:15:11.762Z,95918.88
2022-08-17T06:18:28.864Z,95916.42
2022-08-17T06:21:52.624Z,95917.72
2022-08-17T06:25:10.213Z,95918.56
2022-08-17T06:28:26.702Z,95918.80
2022-08-17T06:31:39.746Z,95914.15
2022-08-17T06:38:40.654Z,95909.89
2022-08-17T06:48:35.702Z,95911.48
2022-08-17T06:51:58.704Z,95922.06
2022-08-17T06:55:01.639Z,95921.64
2022-08-17T06:58:29.784Z,95920.86
2022-08-17T07:01:15.294Z,95924.86
2022-08-17T07:04:13.220Z,95924.74
2022-08-17T07:06:57.172Z,95933.70
2022-08-17T07:09:34.113Z,95935.34
2022-08-17T07:12:22.106Z,95940.83
2022-08-17T07:15:08.033Z,95943.66
2022-08-17T07:17:47.869Z,95948.25
2022-08-17T07:20:22.416Z,95946.25
2022-08-17T07:23:06.649Z,95946.36
2022-08-17T07:25:47.244Z,95947.30
2022-08-17T07:28:41.465Z,95947.89
2022-08-17T07:31:14.069Z,95948.53
2022-08-17T07:34:00.890Z,95951.48
2022-08-17T07:36:34.998Z,95945.53
2022-08-17T07:39:04.267Z,95944.14
2022-08-17T07:41:57.840Z,95943.94
2022-08-17T07:44:46.997Z,95946.41
2022-08-17T07:47:32.206Z,95941.23
2022-08-17T07:50:29.832Z,95946.52
2022-08-17T07:53:38.057Z,95948.11
2022-08-17T07:56:06.279Z,95950.88
2022-08-17T07:58:34.279Z,95951.77
2022-08-17T08:01:10.397Z,95951.61
2022-08-17T08:03:43.888Z,95951.73
2022-08-17T08:06:24.805Z,95956.44
2022-08-17T08:09:03.849Z,95955.69
2022-08-17T08:11:35.775Z,95954.80
2022-08-17T08:14:22.757Z,95955.80
2022-08-17T08:17:04.228Z,95952.77
2022-08-17T08:19:34.602Z,95947.11
2022-08-17T08:22:12.066Z,95950.13
2022-08-17T08:24:54.436Z,95947.05
2022-08-17T08:27:39.308Z,95945.95
2022-08-17T08:30:15.659Z,95950.91
2022-08-17T08:33:17.520Z,95954.09
2022-08-17T08:35:55.892Z,95951.07
2022-08-17T08:38:38.603Z,95947.85
2022-08-17T08:41:19.354Z,95955.21
2022-08-17T08:44:59.769Z,95952.06
2022-08-17T08:47:56.418Z,95953.59
2022-08-17T08:54:34.654Z,95949.70
2022-08-17T08:57:25.427Z,95946.34
2022-08-17T09:00:16.862Z,95947.42
2022-08-17T09:03:20.096Z,95948.02
2022-08-17T09:06:32.243Z,95945.93
2022-08-17T09:09:34.431Z,95954.65
2022-08-17T09:12:26.074Z,95953.98
2022-08-17T09:15:14.963Z,95954.29
2022-08-17T09:19:00.248Z,95952.16
2022-08-17T09:22:12.204Z,95950.73
2022-08-17T09:25:45.191Z,95948.64
2022-08-17T09:29:17.108Z,95946.80
2022-08-17T09:32:27.813Z,95950.15
2022-08-17T09:35:42.756Z,95953.61
2022-08-17T09:38:56.151Z,95951.33
2022-08-17T09:41:49.477Z,95955.15
2022-08-17T09:45:17.769Z,95955.21
2022-08-17T09:49:04.980Z,95955.77
2022-08-17T09:52:14.872Z,95954.84
2022-08-17T09:55:02.055Z,95958.62
2022-08-17T09:57:53.403Z,95955.10
2022-08-17T10:00:29.440Z,95954.27
2022-08-17T10:03:16.430Z,95956.16
2022-08-17T10:05:57.093Z,95953.36
2022-08-17T10:08:47.716Z,95949.06
2022-08-17T10:12:07.154Z,95946.16
2022-08-17T10:15:09.473Z,95938.48
2022-08-17T10:18:10.667Z,95939.92
2022-08-17T10:20:53.720Z,95943.54
2022-08-17T10:23:40.727Z,95942.10
2022-08-17T10:26:55.419Z,95945.09
2022-08-17T10:29:48.910Z,95940.16
2022-08-17T10:32:49.564Z,95943.87
2022-08-17T10:35:44.430Z,95944.09
2022-08-17T10:38:48.830Z,95950.19
2022-08-17T10:41:46.054Z,95945.55
2022-08-17T10:50:16.185Z,95941.77
2022-08-17T10:51:05.845Z,95944.25
2022-08-17T10:52:07.530Z,95932.42
2022-08-17T10:54:40.811Z,95932.92
2022-08-17T10:57:37.167Z,95937.34
2022-08-17T11:02:14.040Z,95934.15
2022-08-17T11:04:42.437Z,95926.67
2022-08-17T11:07:49.230Z,95931.87
2022-08-17T11:10:45.520Z,95929.69
2022-08-17T11:13:45.044Z,95927.80
2022-08-17T11:16:54.460Z,95929.77
2022-08-17T11:20:21.932Z,95935.42
2022-08-17T11:24:39.435Z,95940.37
2022-08-17T11:28:52.847Z,95938.17
2022-08-17T11:31:42.565Z,95934.59
2022-08-17T11:34:27.883Z,95933.30
2022-08-17T11:37:43.733Z,95930.27
2022-08-17T11:40:35.211Z,95923.21
2022-08-17T11:43:25.319Z,95913.96
2022-08-17T11:46:07.492Z,95908.48
2022-08-17T11:49:15.230Z,95905.71
2022-08-17T11:52:11.807Z,95910.42
2022-08-17T12:05:45.506Z,95897.27
2022-08-17T12:12:45.499Z,95893.02
2022-08-17T12:15:55.785Z,95890.66
2022-08-17T12:22:33.574Z,95896.44
2022-08-17T12:25:16.119Z,95897.39
2022-08-17T12:28:06.913Z,95902.27
2022-08-17T12:31:15.256Z,95899.33
2022-08-17T12:34:00.464Z,95895.82
2022-08-17T12:36:32.787Z,95894.36
2022-08-17T12:39:56.679Z,95898.13
2022-08-17T12:43:23.967Z,95898.22
2022-08-17T12:46:44.366Z,95888.04
2022-08-17T12:49:22.462Z,95889.90
2022-08-17T12:53:33.869Z,95891.39
2022-08-17T12:56:13.474Z,95890.98
2022-08-17T12:59:08.976Z,95887.39
2022-08-17T13:01:52.020Z,95890.64
2022-08-17T13:05:05.989Z,95896.59
2022-08-17T13:08:04.921Z,95893.00
2022-08-17T13:14:19.757Z,95889.98
2022-08-17T13:14:30.387Z,95892.73
2022-08-17T13:17:50.547Z,95887.70
2022-08-17T13:20:29.486Z,95887.98
2022-08-17T13:23:12.623Z,95886.95
2022-08-17T13:25:41.988Z,95889.52
2022-08-17T13:28:35.580Z,95883.71
2022-08-17T13:31:52.764Z,95890.16
2022-08-17T13:35:43.475Z,95895.14
2022-08-17T13:39:43.425Z,95895.70
2022-08-17T13:46:50.531Z,95904.91
2022-08-17T13:49:41.853Z,95908.34
2022-08-17T13:53:01.505Z,95914.33
2022-08-17T13:56:03.283Z,95901.09
2022-08-17T13:59:01.215Z,95906.81
2022-08-17T14:02:13.290Z,95902.02
2022-08-17T14:05:12.765Z,95900.23
2022-08-17T14:08:07.514Z,95903.09
2022-08-17T14:11:33.332Z,95902.98
2022-08-17T14:14:07.810Z,95898.83
2022-08-17T14:16:41.852Z,95898.56
2022-08-17T14:19:49.220Z,95895.71
2022-08-17T14:22:39.403Z,95896.48
2022-08-17T14:25:30.713Z,95897.27
2022-08-17T14:28:15.004Z,95894.48
2022-08-17T14:31:41.083Z,95888.05
2022-08-17T14:34:45.322Z,95892.77
2022-08-17T14:37:21.037Z,95894.95
2022-08-17T14:39:56.008Z,95894.62
2022-08-17T14:42:36.264Z,95890.67
2022-08-17T14:45:29.607Z,95893.60
2022-08-17T14:48:28.826Z,95892.27
2022-08-17T14:53:34.123Z,95900.15
2022-08-17T14:54:56.068Z,95904.75
2022-08-17T14:57:39.628Z,95903.97
2022-08-17T15:00:21.001Z,95898.39
2022-08-17T15:02:56.493Z,95895.34
2022-08-17T15:05:48.609Z,95899.34
2022-08-17T15:08:28.374Z,95899.40
2022-08-17T15:11:01.280Z,95901.18
2022-08-17T15:13:52.372Z,95896.52
2022-08-17T15:16:36.342Z,95897.36
2022-08-17T15:19:09.914Z,95897.66
2022-08-17T15:22:07.106Z,95889.65
2022-08-17T15:24:38.708Z,95898.34
2022-08-17T15:27:37.238Z,95897.31
2022-08-17T15:30:26.546Z,95907.23
2022-08-17T15:32:58.932Z,95911.94
2022-08-17T15:35:43.999Z,95919.38
2022-08-17T15:38:41.947Z,95919.29
2022-08-17T15:41:19.892Z,95921.80
2022-08-17T15:43:54.812Z,95941.23
2022-08-17T15:46:27.057Z,95959.67
2022-08-17T15:49:00.173Z,95965.34
2022-08-17T15:51:31.813Z,95979.11
2022-08-17T15:54:19.325Z,95993.26
2022-08-17T15:56:53.741Z,95999.55
2022-08-17T15:59:21.630Z,95995.06
2022-08-17T16:03:13.202Z,96006.90
2022-08-17T16:04:40.805Z,96011.21
2022-08-17T16:07:12.459Z,96018.28
2022-08-17T16:09:40.790Z,96008.73
2022-08-17T16:12:19.464Z,96004.48
2022-08-17T16:14:57.935Z,96005.27
2022-08-17T16:17:40.150Z,95990.81
2022-08-17T16:20:20.832Z,95986.48
2022-08-17T16:27:02.813Z,95980.33
2022-08-17T16:29:47.878Z,95975.20
2022-08-17T16:32:59.553Z,95971.23
2022-08-17T16:35:42.853Z,95976.64
2022-08-17T16:38:12.426Z,95983.19
2022-08-17T16:40:45.501Z,95987.73
2022-08-17T16:43:14.128Z,95996.14
2022-08-17T16:45:42.848Z,95995.76
2022-08-17T16:48:21.965Z,95991.11
2022-08-17T16:51:03.278Z,96001.27
2022-08-17T16:53:32.502Z,96009.06
2022-08-17T16:56:00.520Z,96011.71
2022-08-17T16:58:31.458Z,96017.52
2022-08-17T17:01:03.156Z,96016.56
2022-08-17T17:03:54.127Z,96022.52
2022-08-17T17:07:12.064Z,96025.89
2022-08-17T17:09:43.893Z,96025.25
2022-08-17T17:13:03.014Z,96024.89
2022-08-17T17:15:47.833Z,96021.49
2022-08-17T17:18:40.193Z,96025.05
2022-08-17T17:21:49.802Z,96022.16
2022-08-17T17:24:37.709Z,96019.41
2022-08-17T17:27:16.267Z,96020.49
2022-08-17T17:30:13.337Z,96020.71
2022-08-17T17:32:52.671Z,96018.70
2022-08-17T17:35:47.096Z,96018.88
2022-08-17T17:38:22.380Z,96019.15
2022-08-17T17:40:55.131Z,96019.31
2022-08-17T17:43:40.187Z,96020.70
2022-08-17T17:46:27.560Z,96026.23
2022-08-17T17:48:58.278Z,96025.80
2022-08-17T17:52:08.501Z,96019.73
2022-08-17T17:54:56.749Z,96020.15
2022-08-17T17:58:00.751Z,96024.77
2022-08-17T18:00:49.522Z,96029.58
2022-08-17T18:03:50.436Z,96033.39
2022-08-17T18:06:32.935Z,96032.52
2022-08-17T18:09:33.967Z,96038.31
2022-08-17T18:12:19.062Z,96037.11
2022-08-17T18:15:10.538Z,96039.02
2022-08-17T18:17:38.730Z,96037.69
2022-08-17T18:20:07.099Z,96045.94
2022-08-17T18:22:35.045Z,96046.80
2022-08-17T18:25:38.070Z,96041.25
2022-08-17T18:28:09.107Z,96044.25
2022-08-17T18:30:37.177Z,96044.80
2022-08-17T18:33:26.586Z,96042.62
2022-08-17T18:35:58.899Z,96048.33
2022-08-17T18:38:34.304Z,96046.13
2022-08-17T18:41:24.325Z,96048.91
2022-08-17T18:44:04.027Z,96038.42
2022-08-17T18:46:37.797Z,96038.06
2022-08-17T18:49:25.824Z,96037.34
2022-08-17T18:52:26.195Z,96035.37
2022-08-17T18:55:21.561Z,96040.66
2022-08-17T18:57:53.488Z,96042.14
2022-08-17T19:00:40.541Z,96045.45
2022-08-17T19:03:24.251Z,96042.98
2022-08-17T19:05:55.670Z,96044.95
2022-08-17T19:08:35.951Z,96042.63
2022-08-17T19:11:11.611Z,96044.93
2022-08-17T19:13:45.901Z,96050.21
2022-08-17T19:16:28.120Z,96054.35
2022-08-17T19:19:01.778Z,96055.00
2022-08-17T19:21:36.506Z,96056.20
2022-08-17T19:24:22.940Z,96057.17
2022-08-17T19:27:14.055Z,96054.53
2022-08-17T19:30:05.500Z,96054.23
2022-08-17T19:32:36.475Z,96057.73
2022-08-17T19:35:07.213Z,96054.98
2022-08-17T19:37:45.766Z,96051.88
2022-08-17T19:40:55.079Z,96053.48
2022-08-17T19:43:49.471Z,96055.45
2022-08-17T19:46:35.559Z,96052.66
2022-08-17T19:49:34.498Z,96049.62
2022-08-17T19:52:40.952Z,96043.62
2022-08-17T19:55:24.879Z,96040.73
2022-08-17T19:58:18.904Z,96044.76
2022-08-17T20:00:51.694Z,96047.36
2022-08-17T20:03:27.605Z,96049.91
2022-08-17T20:06:12.692Z,96050.92
2022-08-17T20:08:58.439Z,96050.37
2022-08-17T20:11:34.162Z,96044.83
2022-08-17T20:14:09.858Z,96047.39
2022-08-17T20:16:37.877Z,96047.52
2022-08-17T20:19:20.883Z,96049.65
2022-08-17T20:21:56.554Z,96055.58
2022-08-17T20:24:37.912Z,96060.09
2022-08-17T20:27:16.458Z,96064.00
2022-08-17T20:30:04.015Z,96061.17
2022-08-17T20:32:56.105Z,96053.53
2022-08-17T20:35:30.195Z,96053.27
2022-08-17T20:38:02.315Z,96054.98
2022-08-17T20:40:36.538Z,96058.84
2022-08-17T20:43:42.906Z,96060.84
2022-08-17T20:46:26.708Z,96057.40
2022-08-17T20:49:14.706Z,96054.16
2022-08-17T20:52:01.209Z,96053.78
2022-08-17T20:54:51.865Z,96054.56
2022-08-17T20:57:43.869Z,96054.34
2022-08-17T21:00:42.641Z,96053.67
2022-08-17T21:03:51.192Z,96057.08
2022-08-17T21:06:22.245Z,96057.88
2022-08-17T21:09:19.176Z,96056.10
2022-08-17T21:12:05.345Z,96058.01
2022-08-17T21:14:58.992Z,96056.24
2022-08-17T21:17:43.047Z,96050.42
2022-08-17T21:20:32.691Z,96046.33
2022-08-17T21:23:20.466Z,96045.02
2022-08-17T21:26:30.458Z,96043.45
2022-08-17T21:29:30.084Z,96040.69
2022-08-17T21:32:27.992Z,96043.93
2022-08-17T21:35:25.772Z,96046.83
2022-08-17T21:38:02.342Z,96046.45
2022-08-17T21:40:33.227Z,96041.89
2022-08-17T21:43:17.752Z,96040.36
2022-08-17T21:45:55.768Z,96043.00
2022-08-17T21:48:25.719Z,96045.91
2022-08-17T21:51:17.603Z,96050.11
2022-08-17T21:53:51.855Z,96048.18
2022-08-17T21:56:25.973Z,96047.25
2022-08-17T21:59:02.815Z,96047.67
2022-08-17T22:01:36.163Z,96045.44
2022-08-17T22:04:27.167Z,96047.38
2022-08-17T22:06:57.197Z,96051.51
2022-08-17T22:09:34.210Z,96049.80
2022-08-17T22:12:09.122Z,96051.84
2022-08-17T22:14:51.646Z,96055.66
2022-08-17T22:17:30.058Z,96054.70
2022-08-17T22:20:02.331Z,96050.68
2022-08-17T22:22:55.836Z,96051.09
2022-08-17T22:25:25.819Z,96043.54
2022-08-17T22:28:00.224Z,96046.70
2022-08-17T22:30:39.122Z,96046.27
2022-08-17T22:33:37.783Z,96046.56
2022-08-17T22:36:52.943Z,96044.63
2022-08-17T22:43:26.004Z,96047.70
2022-08-17T22:46:34.794Z,96050.39
2022-08-17T22:49:55.301Z,96038.96
2022-08-17T22:53:07.826Z,96035.70
2022-08-17T23:00:00.799Z,96041.76
2022-08-17T23:03:33.728Z,96040.90
2022-08-17T23:06:44.787Z,96033.98
2022-08-17T23:10:01.018Z,96034.04
2022-08-17T23:12:59.073Z,96033.79
2022-08-17T23:16:07.307Z,96041.50
2022-08-17T23:22:52.312Z,96047.04
2022-08-17T23:26:33.562Z,96045.56
2022-08-17T23:30:05.789Z,96041.92
2022-08-17T23:32:53.740Z,96039.84
2022-08-17T23:35:57.858Z,96035.30
2022-08-17T23:39:27.653Z,96037.34
2022-08-17T23:42:39.804Z,96028.95
2022-08-17T23:46:10.285Z,96030.60
2022-08-17T23:49:06.078Z,96031.63
2022-08-17T23:52:16.915Z,96027.97
2022-08-17T23:55:11.800Z,96030.48
2022-08-17T23:58:18.735Z,96035.55
